sensor_id;sensor_type;location;lat;lon;timestamp;pressure;altitude;pressure_sealevel;temperature;humidity
64628;BME280;59036;50.960;0.314;2022-07-23T00:02:10;100179.58;;;16.05;59.26
64628;BME280;59036;50.960;0.314;2022-07-23T00:04:37;100178.71;;;15.90;59.58
64628;BME280;59036;50.960;0.314;2022-07-23T00:07:04;100178.23;;;16.34;58.34
64628;BME280;59036;50.960;0.314;2022-07-23T00:09:31;100176.94;;;16.90;56.79
64628;BME280;59036;50.960;0.314;2022-07-23T00:11:59;100174.94;;;16.29;57.32
64628;BME280;59036;50.960;0.314;2022-07-23T00:14:26;100171.94;;;16.31;57.71
64628;BME280;59036;50.960;0.314;2022-07-23T00:16:53;100168.18;;;16.31;57.57
64628;BME280;59036;50.960;0.314;2022-07-23T00:19:20;100167.75;;;16.28;56.94
64628;BME280;59036;50.960;0.314;2022-07-23T00:21:47;100167.83;;;16.50;56.87
64628;BME280;59036;50.960;0.314;2022-07-23T00:24:14;100167.60;;;16.75;56.66
64628;BME280;59036;50.960;0.314;2022-07-23T00:26:41;100163.60;;;16.92;56.66
64628;BME280;59036;50.960;0.314;2022-07-23T00:29:07;100165.86;;;16.16;57.21
64628;BME280;59036;50.960;0.314;2022-07-23T00:31:34;100173.46;;;16.97;56.24
64628;BME280;59036;50.960;0.314;2022-07-23T00:34:01;100175.23;;;16.81;56.28
64628;BME280;59036;50.960;0.314;2022-07-23T00:36:28;100175.44;;;16.41;57.65
64628;BME280;59036;50.960;0.314;2022-07-23T00:38:55;100177.37;;;17.09;55.84
64628;BME280;59036;50.960;0.314;2022-07-23T00:41:23;100176.91;;;16.83;56.30
64628;BME280;59036;50.960;0.314;2022-07-23T00:43:50;100177.50;;;16.84;56.57
64628;BME280;59036;50.960;0.314;2022-07-23T00:46:19;100182.81;;;16.96;56.13
64628;BME280;59036;50.960;0.314;2022-07-23T00:48:47;100183.09;;;17.49;54.86
64628;BME280;59036;50.960;0.314;2022-07-23T00:51:15;100185.43;;;17.26;55.25
64628;BME280;59036;50.960;0.314;2022-07-23T00:53:44;100181.91;;;17.02;55.57
64628;BME280;59036;50.960;0.314;2022-07-23T00:56:12;100185.26;;;16.89;56.40
64628;BME280;59036;50.960;0.314;2022-07-23T00:58:39;100182.62;;;17.31;55.52
64628;BME280;59036;50.960;0.314;2022-07-23T01:01:08;100180.56;;;17.06;55.67
64628;BME280;59036;50.960;0.314;2022-07-23T01:03:36;100182.27;;;17.10;55.55
64628;BME280;59036;50.960;0.314;2022-07-23T01:06:03;100182.15;;;16.87;56.32
64628;BME280;59036;50.960;0.314;2022-07-23T01:08:30;100187.41;;;16.92;56.88
64628;BME280;59036;50.960;0.314;2022-07-23T01:10:57;100189.57;;;17.20;55.64
64628;BME280;59036;50.960;0.314;2022-07-23T01:13:24;100191.37;;;16.75;56.50
64628;BME280;59036;50.960;0.314;2022-07-23T01:15:51;100190.08;;;17.24;55.52
64628;BME280;59036;50.960;0.314;2022-07-23T01:18:18;100187.93;;;16.41;57.27
64628;BME280;59036;50.960;0.314;2022-07-23T01:20:45;100185.86;;;16.93;56.24
64628;BME280;59036;50.960;0.314;2022-07-23T01:23:12;100189.02;;;16.39;57.28
64628;BME280;59036;50.960;0.314;2022-07-23T01:25:47;100186.97;;;17.49;54.82
64628;BME280;59036;50.960;0.314;2022-07-23T01:28:14;100190.22;;;17.80;54.27
64628;BME280;59036;50.960;0.314;2022-07-23T01:30:41;100189.76;;;17.45;54.85
64628;BME280;59036;50.960;0.314;2022-07-23T01:33:09;100187.28;;;17.97;54.37
64628;BME280;59036;50.960;0.314;2022-07-23T01:35:36;100191.62;;;17.41;54.85
64628;BME280;59036;50.960;0.314;2022-07-23T01:38:03;100190.84;;;17.84;54.66
64628;BME280;59036;50.960;0.314;2022-07-23T01:40:30;100193.67;;;18.27;53.87
64628;BME280;59036;50.960;0.314;2022-07-23T01:42:57;100194.90;;;17.95;54.51
64628;BME280;59036;50.960;0.314;2022-07-23T01:45:24;100193.80;;;18.28;53.05
64628;BME280;59036;50.960;0.314;2022-07-23T01:47:51;100195.66;;;17.46;55.42
64628;BME280;59036;50.960;0.314;2022-07-23T01:50:18;100192.49;;;17.88;54.24
64628;BME280;59036;50.960;0.314;2022-07-23T01:52:45;100187.37;;;17.77;54.17
64628;BME280;59036;50.960;0.314;2022-07-23T01:55:12;100190.53;;;17.35;55.99
64628;BME280;59036;50.960;0.314;2022-07-23T01:57:39;100186.23;;;18.02;54.21
64628;BME280;59036;50.960;0.314;2022-07-23T02:00:07;100182.24;;;18.26;54.30
64628;BME280;59036;50.960;0.314;2022-07-23T02:02:34;100184.43;;;18.29;53.19
64628;BME280;59036;50.960;0.314;2022-07-23T02:05:01;100183.09;;;17.82;54.29
64628;BME280;59036;50.960;0.314;2022-07-23T02:07:28;100181.27;;;18.33;53.69
64628;BME280;59036;50.960;0.314;2022-07-23T02:09:55;100179.59;;;18.71;53.18
64628;BME280;59036;50.960;0.314;2022-07-23T02:12:22;100178.71;;;18.29;53.97
64628;BME280;59036;50.960;0.314;2022-07-23T02:14:49;100179.07;;;18.38;53.64
64628;BME280;59036;50.960;0.314;2022-07-23T02:17:16;100176.61;;;18.50;52.87
64628;BME280;59036;50.960;0.314;2022-07-23T02:19:43;100178.93;;;18.63;53.39
64628;BME280;59036;50.960;0.314;2022-07-23T02:22:10;100183.00;;;18.40;53.77
64628;BME280;59036;50.960;0.314;2022-07-23T02:24:37;100186.30;;;18.10;54.44
64628;BME280;59036;50.960;0.314;2022-07-23T02:27:04;100183.35;;;17.92;54.79
64628;BME280;59036;50.960;0.314;2022-07-23T02:29:31;100184.51;;;18.76;53.43
64628;BME280;59036;50.960;0.314;2022-07-23T02:31:58;100188.86;;;18.36;54.42
64628;BME280;59036;50.960;0.314;2022-07-23T02:34:25;100187.90;;;18.68;54.12
64628;BME280;59036;50.960;0.314;2022-07-23T02:36:52;100186.42;;;19.40;52.28
64628;BME280;59036;50.960;0.314;2022-07-23T02:39:19;100190.70;;;18.90;53.09
64628;BME280;59036;50.960;0.314;2022-07-23T02:41:46;100194.23;;;18.50;54.54
64628;BME280;59036;50.960;0.314;2022-07-23T02:44:13;100192.38;;;18.22;54.15
64628;BME280;59036;50.960;0.314;2022-07-23T02:46:40;100188.72;;;19.07;52.60
64628;BME280;59036;50.960;0.314;2022-07-23T02:49:06;100191.26;;;19.16;52.92
64628;BME280;59036;50.960;0.314;2022-07-23T02:51:33;100188.40;;;19.49;51.85
64628;BME280;59036;50.960;0.314;2022-07-23T02:54:00;100186.15;;;19.50;52.33
64628;BME280;59036;50.960;0.314;2022-07-23T02:56:27;100188.52;;;18.45;55.43
64628;BME280;59036;50.960;0.314;2022-07-23T02:58:54;100186.60;;;18.98;53.54
64628;BME280;59036;50.960;0.314;2022-07-23T03:01:21;100182.32;;;18.94;54.40
64628;BME280;59036;50.960;0.314;2022-07-23T03:03:48;100183.12;;;17.82;56.73
64628;BME280;59036;50.960;0.314;2022-07-23T03:06:15;100181.04;;;17.78;56.98
64628;BME280;59036;50.960;0.314;2022-07-23T03:08:42;100180.66;;;16.89;59.92
64628;BME280;59036;50.960;0.314;2022-07-23T03:11:09;100180.60;;;17.10;59.65
64628;BME280;59036;50.960;0.314;2022-07-23T03:13:37;100184.60;;;17.62;58.24
64628;BME280;59036;50.960;0.314;2022-07-23T03:16:04;100184.27;;;18.02;56.04
64628;BME280;59036;50.960;0.314;2022-07-23T03:18:32;100188.73;;;18.63;54.73
64628;BME280;59036;50.960;0.314;2022-07-23T03:20:59;100186.39;;;18.76;53.85
64628;BME280;59036;50.960;0.314;2022-07-23T03:23:27;100185.27;;;18.56;53.53
64628;BME280;59036;50.960;0.314;2022-07-23T03:25:54;100186.03;;;18.54;53.57
64628;BME280;59036;50.960;0.314;2022-07-23T03:28:21;100187.79;;;18.85;53.00
64628;BME280;59036;50.960;0.314;2022-07-23T03:30:48;100186.91;;;19.15;52.21
64628;BME280;59036;50.960;0.314;2022-07-23T03:33:15;100189.07;;;18.33;53.26
64628;BME280;59036;50.960;0.314;2022-07-23T03:35:44;100186.73;;;19.04;52.23
64628;BME280;59036;50.960;0.314;2022-07-23T03:38:11;100185.32;;;18.92;52.16
64628;BME280;59036;50.960;0.314;2022-07-23T03:40:39;100182.98;;;18.97;52.04
64628;BME280;59036;50.960;0.314;2022-07-23T03:43:06;100179.86;;;18.72;52.14
64628;BME280;59036;50.960;0.314;2022-07-23T03:45:34;100181.16;;;19.01;52.09
64628;BME280;59036;50.960;0.314;2022-07-23T03:48:01;100178.49;;;18.70;51.91
64628;BME280;59036;50.960;0.314;2022-07-23T03:50:28;100173.71;;;19.56;51.36
64628;BME280;59036;50.960;0.314;2022-07-23T03:52:55;100174.90;;;19.45;51.20
64628;BME280;59036;50.960;0.314;2022-07-23T03:55:22;100174.40;;;19.36;51.86
64628;BME280;59036;50.960;0.314;2022-07-23T03:57:49;100174.70;;;19.27;52.63
64628;BME280;59036;50.960;0.314;2022-07-23T04:00:16;100171.41;;;19.20;52.89
64628;BME280;59036;50.960;0.314;2022-07-23T04:02:44;100169.62;;;19.12;53.21
64628;BME280;59036;50.960;0.314;2022-07-23T04:05:11;100171.84;;;19.01;53.02
64628;BME280;59036;50.960;0.314;2022-07-23T04:07:38;100175.83;;;19.20;52.65
64628;BME280;59036;50.960;0.314;2022-07-23T04:10:06;100175.01;;;19.01;52.63
64628;BME280;59036;50.960;0.314;2022-07-23T04:12:33;100173.22;;;19.02;52.88
64628;BME280;59036;50.960;0.314;2022-07-23T04:15:00;100171.54;;;19.21;52.65
64628;BME280;59036;50.960;0.314;2022-07-23T04:17:27;100167.92;;;19.53;51.99
64628;BME280;59036;50.960;0.314;2022-07-23T04:19:54;100168.68;;;19.23;52.77
64628;BME280;59036;50.960;0.314;2022-07-23T04:22:21;100170.94;;;19.29;52.23
64628;BME280;59036;50.960;0.314;2022-07-23T04:24:48;100170.47;;;19.69;51.68
64628;BME280;59036;50.960;0.314;2022-07-23T04:27:15;100175.02;;;19.64;51.77
64628;BME280;59036;50.960;0.314;2022-07-23T04:29:42;100176.99;;;19.47;52.03
64628;BME280;59036;50.960;0.314;2022-07-23T04:32:09;100177.20;;;19.61;51.78
64628;BME280;59036;50.960;0.314;2022-07-23T04:34:37;100177.30;;;19.72;51.60
64628;BME280;59036;50.960;0.314;2022-07-23T04:37:04;100178.78;;;19.65;51.60
64628;BME280;59036;50.960;0.314;2022-07-23T04:39:30;100182.51;;;19.14;52.15
64628;BME280;59036;50.960;0.314;2022-07-23T04:41:57;100182.54;;;19.52;51.92
64628;BME280;59036;50.960;0.314;2022-07-23T04:44:24;100180.97;;;19.74;51.71
64628;BME280;59036;50.960;0.314;2022-07-23T04:46:52;100182.80;;;19.77;51.78
64628;BME280;59036;50.960;0.314;2022-07-23T04:49:20;100183.71;;;19.55;52.27
64628;BME280;59036;50.960;0.314;2022-07-23T04:51:47;100187.61;;;18.76;53.38
64628;BME280;59036;50.960;0.314;2022-07-23T04:54:14;100186.61;;;19.69;52.23
64628;BME280;59036;50.960;0.314;2022-07-23T04:56:41;100189.57;;;19.56;52.36
64628;BME280;59036;50.960;0.314;2022-07-23T04:59:08;100191.74;;;19.70;52.34
64628;BME280;59036;50.960;0.314;2022-07-23T05:01:35;100196.71;;;19.25;53.27
64628;BME280;59036;50.960;0.314;2022-07-23T05:04:02;100195.14;;;19.58;52.59
64628;BME280;59036;50.960;0.314;2022-07-23T05:06:29;100194.42;;;19.57;52.51
64628;BME280;59036;50.960;0.314;2022-07-23T05:08:56;100192.31;;;19.58;52.43
64628;BME280;59036;50.960;0.314;2022-07-23T05:11:23;100195.57;;;19.37;52.86
64628;BME280;59036;50.960;0.314;2022-07-23T05:13:50;100197.58;;;19.20;52.79
64628;BME280;59036;50.960;0.314;2022-07-23T05:16:17;100197.17;;;19.16;53.31
64628;BME280;59036;50.960;0.314;2022-07-23T05:18:44;100200.08;;;18.99;53.49
64628;BME280;59036;50.960;0.314;2022-07-23T05:21:11;100198.77;;;19.06;53.36
64628;BME280;59036;50.960;0.314;2022-07-23T05:23:38;100200.60;;;19.26;54.05
64628;BME280;59036;50.960;0.314;2022-07-23T05:26:05;100203.33;;;19.07;54.49
64628;BME280;59036;50.960;0.314;2022-07-23T05:28:32;100199.78;;;19.80;53.30
64628;BME280;59036;50.960;0.314;2022-07-23T05:30:59;100198.27;;;19.28;53.67
64628;BME280;59036;50.960;0.314;2022-07-23T05:33:26;100201.03;;;19.52;52.66
64628;BME280;59036;50.960;0.314;2022-07-23T05:35:53;100205.44;;;18.84;54.10
64628;BME280;59036;50.960;0.314;2022-07-23T05:38:20;100201.49;;;19.45;53.09
64628;BME280;59036;50.960;0.314;2022-07-23T05:40:47;100200.15;;;19.29;53.40
64628;BME280;59036;50.960;0.314;2022-07-23T05:43:14;100200.74;;;20.08;52.01
64628;BME280;59036;50.960;0.314;2022-07-23T05:45:40;100207.63;;;19.72;52.76
64628;BME280;59036;50.960;0.314;2022-07-23T05:48:08;100203.65;;;19.89;52.74
64628;BME280;59036;50.960;0.314;2022-07-23T05:50:36;100202.70;;;19.64;53.26
64628;BME280;59036;50.960;0.314;2022-07-23T05:53:03;100204.99;;;20.03;52.74
64628;BME280;59036;50.960;0.314;2022-07-23T05:55:30;100213.99;;;20.00;52.95
64628;BME280;59036;50.960;0.314;2022-07-23T05:57:58;100215.76;;;19.52;53.64
64628;BME280;59036;50.960;0.314;2022-07-23T06:00:26;100221.15;;;19.90;53.90
64628;BME280;59036;50.960;0.314;2022-07-23T06:02:54;100220.70;;;19.64;54.24
64628;BME280;59036;50.960;0.314;2022-07-23T06:05:21;100220.67;;;19.41;54.42
64628;BME280;59036;50.960;0.314;2022-07-23T06:07:47;100219.87;;;18.97;55.44
64628;BME280;59036;50.960;0.314;2022-07-23T06:10:15;100231.55;;;17.25;59.86
64628;BME280;59036;50.960;0.314;2022-07-23T06:12:42;100222.19;;;18.69;56.50
64628;BME280;59036;50.960;0.314;2022-07-23T06:15:10;100222.68;;;18.97;57.07
64628;BME280;59036;50.960;0.314;2022-07-23T06:17:37;100219.59;;;18.50;58.83
64628;BME280;59036;50.960;0.314;2022-07-23T06:20:06;100220.16;;;17.90;60.40
64628;BME280;59036;50.960;0.314;2022-07-23T06:22:34;100220.11;;;17.69;61.09
64628;BME280;59036;50.960;0.314;2022-07-23T06:25:02;100227.51;;;17.33;61.65
64628;BME280;59036;50.960;0.314;2022-07-23T06:27:29;100228.02;;;17.87;60.37
64628;BME280;59036;50.960;0.314;2022-07-23T06:29:56;100225.44;;;17.82;60.37
64628;BME280;59036;50.960;0.314;2022-07-23T06:32:23;100224.61;;;18.00;60.31
64628;BME280;59036;50.960;0.314;2022-07-23T06:34:50;100222.86;;;17.41;62.83
64628;BME280;59036;50.960;0.314;2022-07-23T06:37:17;100216.93;;;17.00;64.25
64628;BME280;59036;50.960;0.314;2022-07-23T06:39:44;100215.55;;;17.16;64.53
64628;BME280;59036;50.960;0.314;2022-07-23T06:42:10;100220.00;;;16.81;65.11
64628;BME280;59036;50.960;0.314;2022-07-23T06:44:37;100223.53;;;16.93;64.34
64628;BME280;59036;50.960;0.314;2022-07-23T06:47:04;100223.81;;;16.01;68.72
64628;BME280;59036;50.960;0.314;2022-07-23T06:49:31;100220.32;;;16.39;66.91
64628;BME280;59036;50.960;0.314;2022-07-23T06:51:58;100215.56;;;16.83;65.82
64628;BME280;59036;50.960;0.314;2022-07-23T06:54:25;100217.24;;;16.63;65.18
64628;BME280;59036;50.960;0.314;2022-07-23T06:56:52;100216.13;;;17.12;63.84
64628;BME280;59036;50.960;0.314;2022-07-23T06:59:19;100214.35;;;17.38;62.81
64628;BME280;59036;50.960;0.314;2022-07-23T07:01:46;100216.19;;;16.84;65.19
64628;BME280;59036;50.960;0.314;2022-07-23T07:04:13;100218.66;;;17.58;63.02
64628;BME280;59036;50.960;0.314;2022-07-23T07:06:40;100221.12;;;17.58;62.52
64628;BME280;59036;50.960;0.314;2022-07-23T07:09:07;100221.14;;;17.90;61.18
64628;BME280;59036;50.960;0.314;2022-07-23T07:11:34;100218.89;;;18.64;58.41
64628;BME280;59036;50.960;0.314;2022-07-23T07:14:02;100218.44;;;19.04;56.29
64628;BME280;59036;50.960;0.314;2022-07-23T07:16:29;100224.96;;;18.67;57.38
64628;BME280;59036;50.960;0.314;2022-07-23T07:18:56;100224.27;;;19.17;56.93
64628;BME280;59036;50.960;0.314;2022-07-23T07:21:23;100230.41;;;18.39;57.36
64628;BME280;59036;50.960;0.314;2022-07-23T07:23:49;100231.14;;;18.67;56.54
64628;BME280;59036;50.960;0.314;2022-07-23T07:26:16;100234.70;;;18.25;57.56
64628;BME280;59036;50.960;0.314;2022-07-23T07:28:43;100238.77;;;18.71;57.19
64628;BME280;59036;50.960;0.314;2022-07-23T07:31:10;100240.03;;;18.26;58.34
64628;BME280;59036;50.960;0.314;2022-07-23T07:33:37;100244.02;;;17.04;60.96
64628;BME280;59036;50.960;0.314;2022-07-23T07:36:05;100243.81;;;16.76;62.36
64628;BME280;59036;50.960;0.314;2022-07-23T07:38:32;100245.94;;;18.10;59.65
64628;BME280;59036;50.960;0.314;2022-07-23T07:40:59;100246.71;;;16.79;61.79
64628;BME280;59036;50.960;0.314;2022-07-23T07:43:26;100242.64;;;18.17;59.03
64628;BME280;59036;50.960;0.314;2022-07-23T07:45:53;100237.72;;;18.26;57.45
64628;BME280;59036;50.960;0.314;2022-07-23T07:48:19;100236.66;;;18.95;55.74
64628;BME280;59036;50.960;0.314;2022-07-23T07:50:47;100242.80;;;17.86;56.43
64628;BME280;59036;50.960;0.314;2022-07-23T07:53:14;100244.17;;;18.59;55.83
64628;BME280;59036;50.960;0.314;2022-07-23T07:55:40;100252.98;;;18.56;54.99
64628;BME280;59036;50.960;0.314;2022-07-23T07:58:07;100248.21;;;18.37;55.05
64628;BME280;59036;50.960;0.314;2022-07-23T08:00:34;100250.95;;;17.21;56.61
64628;BME280;59036;50.960;0.314;2022-07-23T08:03:01;100246.61;;;18.71;54.12
64628;BME280;59036;50.960;0.314;2022-07-23T08:05:29;100250.87;;;18.57;53.20
64628;BME280;59036;50.960;0.314;2022-07-23T08:07:58;100251.09;;;19.12;51.66
64628;BME280;59036;50.960;0.314;2022-07-23T08:10:27;100254.94;;;17.73;54.31
64628;BME280;59036;50.960;0.314;2022-07-23T08:12:55;100251.08;;;19.27;50.94
64628;BME280;59036;50.960;0.314;2022-07-23T08:15:23;100255.12;;;18.93;52.29
64628;BME280;59036;50.960;0.314;2022-07-23T08:17:50;100251.05;;;19.25;52.12
64628;BME280;59036;50.960;0.314;2022-07-23T08:20:19;100250.77;;;19.32;51.66
64628;BME280;59036;50.960;0.314;2022-07-23T08:22:49;100253.05;;;18.54;52.99
64628;BME280;59036;50.960;0.314;2022-07-23T08:25:19;100248.82;;;19.51;50.87
64628;BME280;59036;50.960;0.314;2022-07-23T08:27:47;100243.23;;;20.68;48.68
64628;BME280;59036;50.960;0.314;2022-07-23T08:30:14;100239.72;;;20.99;47.55
64628;BME280;59036;50.960;0.314;2022-07-23T08:32:51;100245.98;;;19.19;48.08
64628;BME280;59036;50.960;0.314;2022-07-23T08:35:22;100250.44;;;17.96;51.69
64628;BME280;59036;50.960;0.314;2022-07-23T08:37:50;100249.61;;;19.16;50.01
64628;BME280;59036;50.960;0.314;2022-07-23T08:40:18;100246.15;;;19.47;49.04
64628;BME280;59036;50.960;0.314;2022-07-23T08:42:48;100247.09;;;19.41;50.11
64628;BME280;59036;50.960;0.314;2022-07-23T08:45:17;100247.94;;;19.38;50.86
64628;BME280;59036;50.960;0.314;2022-07-23T08:47:44;100253.91;;;19.32;49.33
64628;BME280;59036;50.960;0.314;2022-07-23T08:50:12;100259.55;;;19.44;50.05
64628;BME280;59036;50.960;0.314;2022-07-23T08:52:40;100254.88;;;19.99;48.79
64628;BME280;59036;50.960;0.314;2022-07-23T08:55:08;100257.82;;;18.02;52.65
64628;BME280;59036;50.960;0.314;2022-07-23T08:57:35;100257.04;;;19.40;50.43
64628;BME280;59036;50.960;0.314;2022-07-23T09:00:04;100259.36;;;19.45;49.51
64628;BME280;59036;50.960;0.314;2022-07-23T09:02:38;100260.21;;;19.50;49.57
64628;BME280;59036;50.960;0.314;2022-07-23T09:05:07;100260.96;;;19.09;50.43
64628;BME280;59036;50.960;0.314;2022-07-23T09:07:35;100260.85;;;18.79;52.09
64628;BME280;59036;50.960;0.314;2022-07-23T09:10:07;100266.92;;;18.67;51.48
64628;BME280;59036;50.960;0.314;2022-07-23T09:12:35;100262.86;;;19.20;50.50
64628;BME280;59036;50.960;0.314;2022-07-23T09:15:05;100256.84;;;19.87;50.40
64628;BME280;59036;50.960;0.314;2022-07-23T09:17:42;100261.43;;;19.66;48.92
64628;BME280;59036;50.960;0.314;2022-07-23T09:20:11;100256.61;;;20.46;48.73
64628;BME280;59036;50.960;0.314;2022-07-23T09:22:40;100250.71;;;19.75;49.77
64628;BME280;59036;50.960;0.314;2022-07-23T09:25:13;100247.29;;;19.51;51.90
64628;BME280;59036;50.960;0.314;2022-07-23T09:27:51;100252.09;;;19.77;50.57
64628;BME280;59036;50.960;0.314;2022-07-23T09:30:19;100249.33;;;20.65;48.80
64628;BME280;59036;50.960;0.314;2022-07-23T09:33:19;100250.50;;;19.14;50.48
64628;BME280;59036;50.960;0.314;2022-07-23T09:35:50;100253.89;;;19.17;50.35
64628;BME280;59036;50.960;0.314;2022-07-23T09:38:18;100256.34;;;19.09;49.66
64628;BME280;59036;50.960;0.314;2022-07-23T09:40:47;100257.60;;;19.51;50.66
64628;BME280;59036;50.960;0.314;2022-07-23T09:43:26;100261.59;;;20.23;48.35
64628;BME280;59036;50.960;0.314;2022-07-23T09:45:54;100254.35;;;20.39;48.47
64628;BME280;59036;50.960;0.314;2022-07-23T09:48:43;100258.29;;;21.18;47.10
64628;BME280;59036;50.960;0.314;2022-07-23T09:51:10;100255.34;;;19.81;48.52
64628;BME280;59036;50.960;0.314;2022-07-23T09:53:37;100256.17;;;19.46;49.35
64628;BME280;59036;50.960;0.314;2022-07-23T09:56:05;100259.32;;;20.71;48.36
64628;BME280;59036;50.960;0.314;2022-07-23T09:58:35;100259.36;;;20.63;48.36
64628;BME280;59036;50.960;0.314;2022-07-23T10:01:04;100256.38;;;21.25;48.51
64628;BME280;59036;50.960;0.314;2022-07-23T10:03:31;100258.70;;;20.53;49.76
64628;BME280;59036;50.960;0.314;2022-07-23T10:05:59;100270.93;;;19.53;50.64
64628;BME280;59036;50.960;0.314;2022-07-23T10:08:26;100273.79;;;19.32;51.34
64628;BME280;59036;50.960;0.314;2022-07-23T10:10:54;100269.89;;;20.12;49.26
64628;BME280;59036;50.960;0.314;2022-07-23T10:13:21;100269.44;;;20.29;49.07
64628;BME280;59036;50.960;0.314;2022-07-23T10:15:50;100276.52;;;20.23;49.32
64628;BME280;59036;50.960;0.314;2022-07-23T10:18:17;100278.36;;;19.71;50.20
64628;BME280;59036;50.960;0.314;2022-07-23T10:20:48;100275.82;;;19.99;49.52
64628;BME280;59036;50.960;0.314;2022-07-23T10:23:22;100272.96;;;20.27;48.16
64628;BME280;59036;50.960;0.314;2022-07-23T10:25:57;100269.75;;;20.68;48.94
64628;BME280;59036;50.960;0.314;2022-07-23T10:28:40;100265.97;;;20.30;49.54
64628;BME280;59036;50.960;0.314;2022-07-23T10:31:19;100266.98;;;20.36;49.20
64628;BME280;59036;50.960;0.314;2022-07-23T10:33:56;100260.50;;;20.23;48.54
64628;BME280;59036;50.960;0.314;2022-07-23T10:36:31;100262.65;;;19.92;50.96
64628;BME280;59036;50.960;0.314;2022-07-23T10:39:05;100275.58;;;19.63;50.79
64628;BME280;59036;50.960;0.314;2022-07-23T10:41:37;100270.57;;;19.88;49.98
64628;BME280;59036;50.960;0.314;2022-07-23T10:44:08;100269.81;;;20.39;48.10
64628;BME280;59036;50.960;0.314;2022-07-23T10:46:54;100275.86;;;19.45;51.29
64628;BME280;59036;50.960;0.314;2022-07-23T10:49:24;100276.38;;;18.77;50.20
64628;BME280;59036;50.960;0.314;2022-07-23T10:52:25;100274.79;;;19.80;48.62
64628;BME280;59036;50.960;0.314;2022-07-23T10:54:55;100267.69;;;20.56;47.64
64628;BME280;59036;50.960;0.314;2022-07-23T10:57:24;100260.88;;;21.12;46.11
64628;BME280;59036;50.960;0.314;2022-07-23T11:00:24;100257.44;;;20.83;46.22
64628;BME280;59036;50.960;0.314;2022-07-23T11:02:53;100264.17;;;20.64;44.92
64628;BME280;59036;50.960;0.314;2022-07-23T11:05:22;100259.88;;;20.87;44.53
64628;BME280;59036;50.960;0.314;2022-07-23T11:08:22;100259.17;;;20.75;44.84
64628;BME280;59036;50.960;0.314;2022-07-23T11:10:52;100257.44;;;21.08;45.05
64628;BME280;59036;50.960;0.314;2022-07-23T11:13:29;100260.95;;;20.64;44.50
64628;BME280;59036;50.960;0.314;2022-07-23T11:16:07;100260.34;;;20.76;45.20
64628;BME280;59036;50.960;0.314;2022-07-23T11:19:07;100260.28;;;20.45;45.36
64628;BME280;59036;50.960;0.314;2022-07-23T11:21:51;100256.90;;;20.80;46.12
64628;BME280;59036;50.960;0.314;2022-07-23T11:24:21;100267.07;;;19.77;45.72
64628;BME280;59036;50.960;0.314;2022-07-23T11:26:53;100261.78;;;20.88;45.76
64628;BME280;59036;50.960;0.314;2022-07-23T11:29:53;100265.70;;;20.42;44.96
64628;BME280;59036;50.960;0.314;2022-07-23T11:32:31;100263.56;;;20.07;45.78
64628;BME280;59036;50.960;0.314;2022-07-23T11:34:59;100260.27;;;20.42;44.52
64628;BME280;59036;50.960;0.314;2022-07-23T11:37:33;100261.89;;;20.49;43.97
64628;BME280;59036;50.960;0.314;2022-07-23T11:40:02;100262.93;;;20.18;44.04
64628;BME280;59036;50.960;0.314;2022-07-23T11:42:29;100259.78;;;20.37;45.25
64628;BME280;59036;50.960;0.314;2022-07-23T11:44:56;100261.92;;;20.61;45.10
64628;BME280;59036;50.960;0.314;2022-07-23T11:47:25;100266.14;;;20.40;45.46
64628;BME280;59036;50.960;0.314;2022-07-23T11:49:54;100259.20;;;20.79;43.95
64628;BME280;59036;50.960;0.314;2022-07-23T11:52:22;100265.72;;;21.78;42.62
64628;BME280;59036;50.960;0.314;2022-07-23T11:54:51;100260.76;;;21.16;43.65
64628;BME280;59036;50.960;0.314;2022-07-23T11:57:19;100254.74;;;20.81;43.74
64628;BME280;59036;50.960;0.314;2022-07-23T11:59:51;100256.50;;;21.66;43.33
64628;BME280;59036;50.960;0.314;2022-07-23T12:02:20;100260.35;;;21.27;42.21
64628;BME280;59036;50.960;0.314;2022-07-23T12:04:49;100266.84;;;21.08;43.42
64628;BME280;59036;50.960;0.314;2022-07-23T12:07:27;100260.33;;;21.13;43.29
64628;BME280;59036;50.960;0.314;2022-07-23T12:09:57;100269.87;;;21.75;43.16
64628;BME280;59036;50.960;0.314;2022-07-23T12:12:25;100260.26;;;21.82;43.60
64628;BME280;59036;50.960;0.314;2022-07-23T12:14:54;100268.24;;;20.70;43.46
64628;BME280;59036;50.960;0.314;2022-07-23T12:17:28;100268.29;;;21.82;42.16
64628;BME280;59036;50.960;0.314;2022-07-23T12:19:57;100267.87;;;21.87;42.25
64628;BME280;59036;50.960;0.314;2022-07-23T12:22:33;100270.18;;;21.71;41.98
64628;BME280;59036;50.960;0.314;2022-07-23T12:25:02;100269.98;;;21.98;40.43
64628;BME280;59036;50.960;0.314;2022-07-23T12:27:30;100274.98;;;21.14;42.47
64628;BME280;59036;50.960;0.314;2022-07-23T12:29:57;100274.42;;;21.81;41.87
64628;BME280;59036;50.960;0.314;2022-07-23T12:32:25;100272.19;;;20.58;44.72
64628;BME280;59036;50.960;0.314;2022-07-23T12:35:04;100270.04;;;21.17;43.11
64628;BME280;59036;50.960;0.314;2022-07-23T12:37:33;100265.79;;;21.05;44.25
64628;BME280;59036;50.960;0.314;2022-07-23T12:40:35;100267.93;;;21.50;41.55
64628;BME280;59036;50.960;0.314;2022-07-23T12:43:05;100263.93;;;21.21;42.12
64628;BME280;59036;50.960;0.314;2022-07-23T12:45:49;100258.77;;;20.91;43.55
64628;BME280;59036;50.960;0.314;2022-07-23T12:48:20;100265.11;;;21.31;42.74
64628;BME280;59036;50.960;0.314;2022-07-23T12:50:57;100257.85;;;21.09;42.59
64628;BME280;59036;50.960;0.314;2022-07-23T12:53:28;100261.10;;;20.88;41.37
64628;BME280;59036;50.960;0.314;2022-07-23T12:56:03;100248.20;;;21.14;40.76
64628;BME280;59036;50.960;0.314;2022-07-23T12:58:41;100254.75;;;21.54;40.66
64628;BME280;59036;50.960;0.314;2022-07-23T13:01:16;100252.59;;;21.73;40.05